sensor_id;sensor_type;location;lat;lon;timestamp;temperature;humidity
16814;DHT22;8524;57.650;11.926;2023-05-29T00:00:03;7.80;99.90
16814;DHT22;8524;57.650;11.926;2023-05-29T00:02:34;7.60;99.90
16814;DHT22;8524;57.650;11.926;2023-05-29T00:05:01;7.50;99.90
16814;DHT22;8524;57.650;11.926;2023-05-29T00:07:28;7.50;99.90
16814;DHT22;8524;57.650;11.926;2023-05-29T00:09:55;7.50;99.90
16814;DHT22;8524;57.650;11.926;2023-05-29T00:12:22;7.50;99.90
16814;DHT22;8524;57.650;11.926;2023-05-29T00:14:50;7.60;99.90
16814;DHT22;8524;57.650;11.926;2023-05-29T00:17:17;7.50;99.90
16814;DHT22;8524;57.650;11.926;2023-05-29T00:19:45;7.50;99.90
16814;DHT22;8524;57.650;11.926;2023-05-29T00:22:12;7.50;99.90
16814;DHT22;8524;57.650;11.926;2023-05-29T00:24:39;7.40;99.90
16814;DHT22;8524;57.650;11.926;2023-05-29T00:27:06;7.30;99.90
16814;DHT22;8524;57.650;11.926;2023-05-29T00:29:34;7.10;99.90
16814;DHT22;8524;57.650;11.926;2023-05-29T00:32:01;7.00;99.90
16814;DHT22;8524;57.650;11.926;2023-05-29T00:34:31;7.00;99.90
16814;DHT22;8524;57.650;11.926;2023-05-29T00:37:00;7.00;99.90
16814;DHT22;8524;57.650;11.926;2023-05-29T00:39:27;7.10;99.90
16814;DHT22;8524;57.650;11.926;2023-05-29T00:41:54;7.00;99.90
16814;DHT22;8524;57.650;11.926;2023-05-29T00:44:21;7.00;99.90
16814;DHT22;8524;57.650;11.926;2023-05-29T00:46:51;6.90;99.90
16814;DHT22;8524;57.650;11.926;2023-05-29T00:49:19;6.90;99.90
16814;DHT22;8524;57.650;11.926;2023-05-29T00:51:46;6.70;99.90
16814;DHT22;8524;57.650;11.926;2023-05-29T00:54:20;6.60;99.90
16814;DHT22;8524;57.650;11.926;2023-05-29T00:56:48;6.50;99.90
16814;DHT22;8524;57.650;11.926;2023-05-29T00:59:15;6.40;99.90
16814;DHT22;8524;57.650;11.926;2023-05-29T01:01:44;6.40;99.90
16814;DHT22;8524;57.650;11.926;2023-05-29T01:04:11;6.40;99.90
16814;DHT22;8524;57.650;11.926;2023-05-29T01:06:40;6.40;99.90
16814;DHT22;8524;57.650;11.926;2023-05-29T01:09:07;6.40;99.90
16814;DHT22;8524;57.650;11.926;2023-05-29T01:11:44;6.40;99.90
16814;DHT22;8524;57.650;11.926;2023-05-29T01:14:20;6.30;99.90
16814;DHT22;8524;57.650;11.926;2023-05-29T01:16:58;6.20;99.90
16814;DHT22;8524;57.650;11.926;2023-05-29T01:19:43;6.20;99.90
16814;DHT22;8524;57.650;11.926;2023-05-29T01:22:25;6.20;99.90
16814;DHT22;8524;57.650;11.926;2023-05-29T01:25:01;6.20;99.90
16814;DHT22;8524;57.650;11.926;2023-05-29T01:27:33;6.10;99.90
16814;DHT22;8524;57.650;11.926;2023-05-29T01:30:02;6.20;99.90
16814;DHT22;8524;57.650;11.926;2023-05-29T01:32:29;6.20;99.90
16814;DHT22;8524;57.650;11.926;2023-05-29T01:34:57;6.10;99.90
16814;DHT22;8524;57.650;11.926;2023-05-29T01:37:24;6.20;99.90
16814;DHT22;8524;57.650;11.926;2023-05-29T01:39:53;6.10;99.90
16814;DHT22;8524;57.650;11.926;2023-05-29T01:42:20;6.00;99.90
16814;DHT22;8524;57.650;11.926;2023-05-29T01:44:49;5.90;99.90
16814;DHT22;8524;57.650;11.926;2023-05-29T01:47:17;5.80;99.90
16814;DHT22;8524;57.650;11.926;2023-05-29T01:49:47;5.80;99.90
16814;DHT22;8524;57.650;11.926;2023-05-29T01:52:16;5.80;99.90
16814;DHT22;8524;57.650;11.926;2023-05-29T01:54:43;5.80;99.90
16814;DHT22;8524;57.650;11.926;2023-05-29T01:57:11;5.80;99.90
16814;DHT22;8524;57.650;11.926;2023-05-29T01:59:38;5.80;99.90
16814;DHT22;8524;57.650;11.926;2023-05-29T02:02:07;5.70;99.90
16814;DHT22;8524;57.650;11.926;2023-05-29T02:04:35;5.70;99.90
16814;DHT22;8524;57.650;11.926;2023-05-29T02:07:02;5.60;99.90
16814;DHT22;8524;57.650;11.926;2023-05-29T02:09:29;5.50;99.90
16814;DHT22;8524;57.650;11.926;2023-05-29T02:11:56;5.40;99.90
16814;DHT22;8524;57.650;11.926;2023-05-29T02:14:23;5.30;99.90
16814;DHT22;8524;57.650;11.926;2023-05-29T02:16:51;5.30;99.90
16814;DHT22;8524;57.650;11.926;2023-05-29T02:19:19;5.30;99.90
16814;DHT22;8524;57.650;11.926;2023-05-29T02:21:47;5.20;99.90
16814;DHT22;8524;57.650;11.926;2023-05-29T02:24:15;5.10;99.90
16814;DHT22;8524;57.650;11.926;2023-05-29T02:26:42;5.10;99.90
16814;DHT22;8524;57.650;11.926;2023-05-29T02:29:09;5.10;99.90
16814;DHT22;8524;57.650;11.926;2023-05-29T02:31:36;5.10;99.90
16814;DHT22;8524;57.650;11.926;2023-05-29T02:34:03;5.10;99.90
16814;DHT22;8524;57.650;11.926;2023-05-29T02:36:31;5.10;99.90
16814;DHT22;8524;57.650;11.926;2023-05-29T02:39:01;5.10;99.90
16814;DHT22;8524;57.650;11.926;2023-05-29T02:41:27;5.20;99.90
16814;DHT22;8524;57.650;11.926;2023-05-29T02:43:54;5.20;99.90
16814;DHT22;8524;57.650;11.926;2023-05-29T02:46:21;5.20;99.90
16814;DHT22;8524;57.650;11.926;2023-05-29T02:48:48;5.20;99.90
16814;DHT22;8524;57.650;11.926;2023-05-29T02:51:15;5.20;99.90
16814;DHT22;8524;57.650;11.926;2023-05-29T02:53:44;5.20;99.90
16814;DHT22;8524;57.650;11.926;2023-05-29T02:56:11;5.20;99.90
16814;DHT22;8524;57.650;11.926;2023-05-29T02:58:38;5.10;99.90
16814;DHT22;8524;57.650;11.926;2023-05-29T03:01:05;5.20;99.90
16814;DHT22;8524;57.650;11.926;2023-05-29T03:03:32;5.30;99.90
16814;DHT22;8524;57.650;11.926;2023-05-29T03:05:59;5.50;99.90
16814;DHT22;8524;57.650;11.926;2023-05-29T03:08:27;5.70;99.90
16814;DHT22;8524;57.650;11.926;2023-05-29T03:10:56;5.80;99.90
16814;DHT22;8524;57.650;11.926;2023-05-29T03:13:23;5.90;99.90
16814;DHT22;8524;57.650;11.926;2023-05-29T03:15:50;6.00;99.90
16814;DHT22;8524;57.650;11.926;2023-05-29T03:18:22;5.90;99.90
16814;DHT22;8524;57.650;11.926;2023-05-29T03:20:49;5.80;99.90
16814;DHT22;8524;57.650;11.926;2023-05-29T03:23:16;5.80;99.90
16814;DHT22;8524;57.650;11.926;2023-05-29T03:25:43;5.70;99.90
16814;DHT22;8524;57.650;11.926;2023-05-29T03:28:12;5.70;99.90
16814;DHT22;8524;57.650;11.926;2023-05-29T03:30:39;5.70;99.90
16814;DHT22;8524;57.650;11.926;2023-05-29T03:33:06;5.70;99.90
16814;DHT22;8524;57.650;11.926;2023-05-29T03:35:33;5.80;99.90
16814;DHT22;8524;57.650;11.926;2023-05-29T03:38:03;5.80;99.90
16814;DHT22;8524;57.650;11.926;2023-05-29T03:40:30;5.80;99.90
16814;DHT22;8524;57.650;11.926;2023-05-29T03:42:57;5.90;99.90
16814;DHT22;8524;57.650;11.926;2023-05-29T03:45:25;5.90;99.90
16814;DHT22;8524;57.650;11.926;2023-05-29T03:47:52;5.80;99.90
16814;DHT22;8524;57.650;11.926;2023-05-29T03:50:19;5.80;99.90
16814;DHT22;8524;57.650;11.926;2023-05-29T03:52:46;5.80;99.90
16814;DHT22;8524;57.650;11.926;2023-05-29T03:55:13;5.90;99.90
16814;DHT22;8524;57.650;11.926;2023-05-29T03:57:41;5.90;99.90
16814;DHT22;8524;57.650;11.926;2023-05-29T04:00:09;6.00;99.90
16814;DHT22;8524;57.650;11.926;2023-05-29T04:02:39;6.10;99.90
16814;DHT22;8524;57.650;11.926;2023-05-29T04:05:06;6.30;99.90
16814;DHT22;8524;57.650;11.926;2023-05-29T04:07:34;6.40;99.90
16814;DHT22;8524;57.650;11.926;2023-05-29T04:10:02;6.50;99.90
16814;DHT22;8524;57.650;11.926;2023-05-29T04:12:30;6.50;99.90
16814;DHT22;8524;57.650;11.926;2023-05-29T04:14:57;6.60;99.90
16814;DHT22;8524;57.650;11.926;2023-05-29T04:17:24;6.70;99.90
16814;DHT22;8524;57.650;11.926;2023-05-29T04:19:52;6.90;99.90
16814;DHT22;8524;57.650;11.926;2023-05-29T04:22:19;7.00;99.90
16814;DHT22;8524;57.650;11.926;2023-05-29T04:24:47;7.10;99.90
16814;DHT22;8524;57.650;11.926;2023-05-29T04:27:14;7.30;99.90
16814;DHT22;8524;57.650;11.926;2023-05-29T04:29:41;7.40;99.90
16814;DHT22;8524;57.650;11.926;2023-05-29T04:32:08;7.60;99.90
16814;DHT22;8524;57.650;11.926;2023-05-29T04:34:37;7.90;99.90
16814;DHT22;8524;57.650;11.926;2023-05-29T04:37:06;8.10;99.90
16814;DHT22;8524;57.650;11.926;2023-05-29T04:39:33;8.20;99.90
16814;DHT22;8524;57.650;11.926;2023-05-29T04:42:00;8.50;99.90
16814;DHT22;8524;57.650;11.926;2023-05-29T04:44:27;8.60;99.90
16814;DHT22;8524;57.650;11.926;2023-05-29T04:46:57;8.80;99.90
16814;DHT22;8524;57.650;11.926;2023-05-29T04:49:24;9.00;99.90
16814;DHT22;8524;57.650;11.926;2023-05-29T04:51:51;9.10;99.90
16814;DHT22;8524;57.650;11.926;2023-05-29T04:54:22;9.20;99.90
16814;DHT22;8524;57.650;11.926;2023-05-29T04:56:49;9.40;99.90
16814;DHT22;8524;57.650;11.926;2023-05-29T04:59:16;9.60;99.90
16814;DHT22;8524;57.650;11.926;2023-05-29T05:01:43;9.80;99.90
16814;DHT22;8524;57.650;11.926;2023-05-29T05:04:13;10.10;99.90
16814;DHT22;8524;57.650;11.926;2023-05-29T05:06:40;10.30;99.90
16814;DHT22;8524;57.650;11.926;2023-05-29T05:09:06;10.40;99.90
16814;DHT22;8524;57.650;11.926;2023-05-29T05:11:35;10.50;99.90
16814;DHT22;8524;57.650;11.926;2023-05-29T05:14:02;10.50;99.90
16814;DHT22;8524;57.650;11.926;2023-05-29T05:16:29;10.70;99.90
16814;DHT22;8524;57.650;11.926;2023-05-29T05:18:57;10.80;99.90
16814;DHT22;8524;57.650;11.926;2023-05-29T05:21:24;10.90;99.90
16814;DHT22;8524;57.650;11.926;2023-05-29T05:23:51;11.00;99.90
16814;DHT22;8524;57.650;11.926;2023-05-29T05:26:18;11.10;99.90
16814;DHT22;8524;57.650;11.926;2023-05-29T05:28:47;11.10;99.90
16814;DHT22;8524;57.650;11.926;2023-05-29T05:31:14;11.20;99.90
16814;DHT22;8524;57.650;11.926;2023-05-29T05:33:41;11.40;99.90
16814;DHT22;8524;57.650;11.926;2023-05-29T05:36:08;11.50;99.90
16814;DHT22;8524;57.650;11.926;2023-05-29T05:38:35;11.70;99.90
16814;DHT22;8524;57.650;11.926;2023-05-29T05:41:03;11.80;99.90
16814;DHT22;8524;57.650;11.926;2023-05-29T05:43:29;11.90;99.90
16814;DHT22;8524;57.650;11.926;2023-05-29T05:46:01;12.10;99.90
16814;DHT22;8524;57.650;11.926;2023-05-29T05:48:28;12.30;99.90
16814;DHT22;8524;57.650;11.926;2023-05-29T05:50:55;12.60;99.90
16814;DHT22;8524;57.650;11.926;2023-05-29T05:53:22;12.90;99.90
16814;DHT22;8524;57.650;11.926;2023-05-29T05:55:49;13.10;99.90
16814;DHT22;8524;57.650;11.926;2023-05-29T05:58:16;13.30;99.90
16814;DHT22;8524;57.650;11.926;2023-05-29T06:00:44;13.40;99.90
16814;DHT22;8524;57.650;11.926;2023-05-29T06:03:12;13.40;99.90
16814;DHT22;8524;57.650;11.926;2023-05-29T06:05:39;13.50;99.90
16814;DHT22;8524;57.650;11.926;2023-05-29T06:08:07;13.70;99.90
16814;DHT22;8524;57.650;11.926;2023-05-29T06:10:35;14.00;99.90
16814;DHT22;8524;57.650;11.926;2023-05-29T06:13:02;14.50;99.90
16814;DHT22;8524;57.650;11.926;2023-05-29T06:15:30;14.60;99.90
16814;DHT22;8524;57.650;11.926;2023-05-29T06:17:57;14.80;99.90
16814;DHT22;8524;57.650;11.926;2023-05-29T06:20:25;15.00;99.90
16814;DHT22;8524;57.650;11.926;2023-05-29T06:22:53;15.00;99.90
16814;DHT22;8524;57.650;11.926;2023-05-29T06:25:20;15.40;99.90
16814;DHT22;8524;57.650;11.926;2023-05-29T06:27:47;15.60;99.90
16814;DHT22;8524;57.650;11.926;2023-05-29T06:30:14;16.10;99.90
16814;DHT22;8524;57.650;11.926;2023-05-29T06:32:42;16.20;99.90
16814;DHT22;8524;57.650;11.926;2023-05-29T06:35:09;16.10;99.90
16814;DHT22;8524;57.650;11.926;2023-05-29T06:37:39;16.40;99.90
16814;DHT22;8524;57.650;11.926;2023-05-29T06:40:07;16.50;99.90
16814;DHT22;8524;57.650;11.926;2023-05-29T06:42:34;16.60;99.90
16814;DHT22;8524;57.650;11.926;2023-05-29T06:45:02;16.70;99.90
16814;DHT22;8524;57.650;11.926;2023-05-29T06:47:32;17.00;99.90
16814;DHT22;8524;57.650;11.926;2023-05-29T06:50:00;17.20;99.90
16814;DHT22;8524;57.650;11.926;2023-05-29T06:52:27;17.50;99.90
16814;DHT22;8524;57.650;11.926;2023-05-29T06:54:56;17.50;99.90
16814;DHT22;8524;57.650;11.926;2023-05-29T06:57:22;17.50;99.90
16814;DHT22;8524;57.650;11.926;2023-05-29T06:59:50;17.60;99.90
16814;DHT22;8524;57.650;11.926;2023-05-29T07:02:17;17.70;99.90
16814;DHT22;8524;57.650;11.926;2023-05-29T07:04:44;18.00;99.90
16814;DHT22;8524;57.650;11.926;2023-05-29T07:07:11;18.30;99.90
16814;DHT22;8524;57.650;11.926;2023-05-29T07:09:38;18.60;99.90
16814;DHT22;8524;57.650;11.926;2023-05-29T07:12:07;18.90;99.90
16814;DHT22;8524;57.650;11.926;2023-05-29T07:14:34;18.40;99.90
16814;DHT22;8524;57.650;11.926;2023-05-29T07:17:01;19.00;99.90
16814;DHT22;8524;57.650;11.926;2023-05-29T07:19:28;19.30;99.50
16814;DHT22;8524;57.650;11.926;2023-05-29T07:21:57;19.20;94.40
16814;DHT22;8524;57.650;11.926;2023-05-29T07:24:25;19.10;93.30
16814;DHT22;8524;57.650;11.926;2023-05-29T07:26:52;18.00;92.50
16814;DHT22;8524;57.650;11.926;2023-05-29T07:29:22;18.00;95.30
16814;DHT22;8524;57.650;11.926;2023-05-29T07:31:50;17.80;99.00
16814;DHT22;8524;57.650;11.926;2023-05-29T07:34:17;18.50;97.20
16814;DHT22;8524;57.650;11.926;2023-05-29T07:36:57;19.00;94.20
16814;DHT22;8524;57.650;11.926;2023-05-29T07:39:25;19.00;92.70
16814;DHT22;8524;57.650;11.926;2023-05-29T07:41:53;19.20;90.70
16814;DHT22;8524;57.650;11.926;2023-05-29T07:44:21;19.40;84.20
16814;DHT22;8524;57.650;11.926;2023-05-29T07:46:49;19.40;91.60
16814;DHT22;8524;57.650;11.926;2023-05-29T07:49:17;20.00;95.50
16814;DHT22;8524;57.650;11.926;2023-05-29T07:51:45;19.40;78.80
16814;DHT22;8524;57.650;11.926;2023-05-29T07:54:12;19.30;80.10
16814;DHT22;8524;57.650;11.926;2023-05-29T07:56:43;19.60;73.40
16814;DHT22;8524;57.650;11.926;2023-05-29T07:59:10;19.70;80.20
16814;DHT22;8524;57.650;11.926;2023-05-29T08:01:39;20.30;89.80
16814;DHT22;8524;57.650;11.926;2023-05-29T08:04:07;20.30;73.60
16814;DHT22;8524;57.650;11.926;2023-05-29T08:06:34;20.60;80.80
16814;DHT22;8524;57.650;11.926;2023-05-29T08:09:01;20.60;77.40
16814;DHT22;8524;57.650;11.926;2023-05-29T08:11:30;20.60;77.80
16814;DHT22;8524;57.650;11.926;2023-05-29T08:13:58;20.90;61.40
16814;DHT22;8524;57.650;11.926;2023-05-29T08:16:25;21.20;79.00
16814;DHT22;8524;57.650;11.926;2023-05-29T08:18:54;20.90;59.00
16814;DHT22;8524;57.650;11.926;2023-05-29T08:21:21;20.70;64.40
16814;DHT22;8524;57.650;11.926;2023-05-29T08:23:48;21.00;70.50
16814;DHT22;8524;57.650;11.926;2023-05-29T08:26:15;20.90;72.00
16814;DHT22;8524;57.650;11.926;2023-05-29T08:28:42;21.10;76.20
16814;DHT22;8524;57.650;11.926;2023-05-29T08:31:09;20.90;63.50
16814;DHT22;8524;57.650;11.926;2023-05-29T08:33:37;20.80;67.30
16814;DHT22;8524;57.650;11.926;2023-05-29T08:36:05;20.70;75.20
16814;DHT22;8524;57.650;11.926;2023-05-29T08:38:32;20.70;70.40
16814;DHT22;8524;57.650;11.926;2023-05-29T08:41:00;20.70;67.20
16814;DHT22;8524;57.650;11.926;2023-05-29T08:43:30;20.70;75.30
16814;DHT22;8524;57.650;11.926;2023-05-29T08:46:00;20.70;79.10
16814;DHT22;8524;57.650;11.926;2023-05-29T08:48:28;21.10;72.60
16814;DHT22;8524;57.650;11.926;2023-05-29T08:50:57;20.50;68.70
16814;DHT22;8524;57.650;11.926;2023-05-29T08:53:25;20.70;83.00
16814;DHT22;8524;57.650;11.926;2023-05-29T08:55:53;21.30;76.10
16814;DHT22;8524;57.650;11.926;2023-05-29T08:58:21;21.20;67.50
16814;DHT22;8524;57.650;11.926;2023-05-29T09:00:49;20.90;57.50
16814;DHT22;8524;57.650;11.926;2023-05-29T09:03:16;21.10;63.80
16814;DHT22;8524;57.650;11.926;2023-05-29T09:05:45;21.10;67.20
16814;DHT22;8524;57.650;11.926;2023-05-29T09:08:13;21.40;60.30
16814;DHT22;8524;57.650;11.926;2023-05-29T09:10:42;20.60;74.10
16814;DHT22;8524;57.650;11.926;2023-05-29T09:13:10;20.90;79.30
16814;DHT22;8524;57.650;11.926;2023-05-29T09:15:39;20.90;73.80
16814;DHT22;8524;57.650;11.926;2023-05-29T09:18:09;20.80;85.10
16814;DHT22;8524;57.650;11.926;2023-05-29T09:20:38;20.60;80.10
16814;DHT22;8524;57.650;11.926;2023-05-29T09:23:08;20.20;65.90
16814;DHT22;8524;57.650;11.926;2023-05-29T09:25:41;20.10;71.20
16814;DHT22;8524;57.650;11.926;2023-05-29T09:28:09;20.20;74.80
16814;DHT22;8524;57.650;11.926;2023-05-29T09:30:38;20.40;69.10
16814;DHT22;8524;57.650;11.926;2023-05-29T09:33:07;20.50;80.40
16814;DHT22;8524;57.650;11.926;2023-05-29T09:35:35;20.90;54.60
16814;DHT22;8524;57.650;11.926;2023-05-29T09:38:03;20.90;64.80
16814;DHT22;8524;57.650;11.926;2023-05-29T09:40:31;20.90;68.90
16814;DHT22;8524;57.650;11.926;2023-05-29T09:43:11;21.20;63.20
16814;DHT22;8524;57.650;11.926;2023-05-29T09:45:39;21.00;47.70
16814;DHT22;8524;57.650;11.926;2023-05-29T09:48:07;19.60;60.20
16814;DHT22;8524;57.650;11.926;2023-05-29T09:50:37;20.20;58.50
16814;DHT22;8524;57.650;11.926;2023-05-29T09:53:16;19.60;56.30
16814;DHT22;8524;57.650;11.926;2023-05-29T09:55:48;19.40;59.00
16814;DHT22;8524;57.650;11.926;2023-05-29T09:58:23;19.70;75.30
16814;DHT22;8524;57.650;11.926;2023-05-29T10:00:52;20.20;69.00
16814;DHT22;8524;57.650;11.926;2023-05-29T10:03:19;19.80;57.00
16814;DHT22;8524;57.650;11.926;2023-05-29T10:05:49;19.50;53.40
16814;DHT22;8524;57.650;11.926;2023-05-29T10:08:19;19.50;50.90
16814;DHT22;8524;57.650;11.926;2023-05-29T10:10:52;18.60;55.50
16814;DHT22;8524;57.650;11.926;2023-05-29T10:13:24;18.70;69.90
16814;DHT22;8524;57.650;11.926;2023-05-29T10:15:55;19.20;66.40
16814;DHT22;8524;57.650;11.926;2023-05-29T10:18:26;19.50;64.30
16814;DHT22;8524;57.650;11.926;2023-05-29T10:20:54;19.50;58.10
16814;DHT22;8524;57.650;11.926;2023-05-29T10:23:25;19.00;51.20
16814;DHT22;8524;57.650;11.926;2023-05-29T10:25:54;18.70;51.60
16814;DHT22;8524;57.650;11.926;2023-05-29T10:28:27;18.60;54.20
16814;DHT22;8524;57.650;11.926;2023-05-29T10:30:57;18.80;57.50
16814;DHT22;8524;57.650;11.926;2023-05-29T10:33:44;19.20;66.90
16814;DHT22;8524;57.650;11.926;2023-05-29T10:36:17;19.70;53.30
16814;DHT22;8524;57.650;11.926;2023-05-29T10:38:48;20.60;37.80
16814;DHT22;8524;57.650;11.926;2023-05-29T10:41:34;20.50;24.40
16814;DHT22;8524;57.650;11.926;2023-05-29T10:44:39;20.30;38.00
16814;DHT22;8524;57.650;11.926;2023-05-29T10:47:09;21.00;29.10
16814;DHT22;8524;57.650;11.926;2023-05-29T10:49:38;21.00;24.90
16814;DHT22;8524;57.650;11.926;2023-05-29T10:52:05;20.90;27.80
16814;DHT22;8524;57.650;11.926;2023-05-29T10:54:51;21.30;17.50
16814;DHT22;8524;57.650;11.926;2023-05-29T10:57:23;21.00;27.30
16814;DHT22;8524;57.650;11.926;2023-05-29T11:00:11;21.60;2.80
16814;DHT22;8524;57.650;11.926;2023-05-29T11:02:44;21.60;3.30
16814;DHT22;8524;57.650;11.926;2023-05-29T11:05:22;21.10;11.30
16814;DHT22;8524;57.650;11.926;2023-05-29T11:07:56;21.40;10.10
16814;DHT22;8524;57.650;11.926;2023-05-29T11:10:55;21.70;17.20
16814;DHT22;8524;57.650;11.926;2023-05-29T11:13:26;21.60;1.90
16814;DHT22;8524;57.650;11.926;2023-05-29T11:16:12;21.40;3.00
16814;DHT22;8524;57.650;11.926;2023-05-29T11:18:44;20.70;6.30
16814;DHT22;8524;57.650;11.926;2023-05-29T11:21:33;19.60;19.60
16814;DHT22;8524;57.650;11.926;2023-05-29T11:24:02;20.00;39.90
16814;DHT22;8524;57.650;11.926;2023-05-29T11:26:31;20.00;32.80
16814;DHT22;8524;57.650;11.926;2023-05-29T11:29:02;19.80;42.40
16814;DHT22;8524;57.650;11.926;2023-05-29T11:31:32;20.00;43.30
16814;DHT22;8524;57.650;11.926;2023-05-29T11:34:01;20.30;46.40
16814;DHT22;8524;57.650;11.926;2023-05-29T11:36:31;20.60;33.20
16814;DHT22;8524;57.650;11.926;2023-05-29T11:38:58;20.50;41.50
16814;DHT22;8524;57.650;11.926;2023-05-29T11:41:26;20.70;40.30
16814;DHT22;8524;57.650;11.926;2023-05-29T11:43:57;20.20;28.70
16814;DHT22;8524;57.650;11.926;2023-05-29T11:46:24;20.20;44.40
16814;DHT22;8524;57.650;11.926;2023-05-29T11:48:55;20.90;39.00
16814;DHT22;8524;57.650;11.926;2023-05-29T11:51:22;20.90;35.50
16814;DHT22;8524;57.650;11.926;2023-05-29T11:53:49;20.50;42.70
16814;DHT22;8524;57.650;11.926;2023-05-29T11:56:18;20.10;34.90
16814;DHT22;8524;57.650;11.926;2023-05-29T11:58:46;19.60;31.50
16814;DHT22;8524;57.650;11.926;2023-05-29T12:01:16;19.10;46.20
16814;DHT22;8524;57.650;11.926;2023-05-29T12:03:45;18.90;62.20
16814;DHT22;8524;57.650;11.926;2023-05-29T12:06:13;19.50;51.60
16814;DHT22;8524;57.650;11.926;2023-05-29T12:08:40;19.70;59.40
16814;DHT22;8524;57.650;11.926;2023-05-29T12:11:08;19.80;56.40
16814;DHT22;8524;57.650;11.926;2023-05-29T12:13:37;20.10;58.50
16814;DHT22;8524;57.650;11.926;2023-05-29T12:16:06;20.00;57.20
16814;DHT22;8524;57.650;11.926;2023-05-29T12:18:34;20.10;50.20
16814;DHT22;8524;57.650;11.926;2023-05-29T12:21:02;19.60;59.60
16814;DHT22;8524;57.650;11.926;2023-05-29T12:23:31;20.00;47.70
16814;DHT22;8524;57.650;11.926;2023-05-29T12:25:58;20.40;47.60
16814;DHT22;8524;57.650;11.926;2023-05-29T12:28:26;19.60;50.50
16814;DHT22;8524;57.650;11.926;2023-05-29T12:30:58;19.20;57.10
16814;DHT22;8524;57.650;11.926;2023-05-29T12:33:29;19.30;64.70
16814;DHT22;8524;57.650;11.926;2023-05-29T12:36:04;18.80;61.50
16814;DHT22;8524;57.650;11.926;2023-05-29T12:38:33;18.60;66.40
16814;DHT22;8524;57.650;11.926;2023-05-29T12:41:02;18.50;67.80
16814;DHT22;8524;57.650;11.926;2023-05-29T12:43:29;18.60;70.10
16814;DHT22;8524;57.650;11.926;2023-05-29T12:45:56;18.50;68.40
16814;DHT22;8524;57.650;11.926;2023-05-29T12:48:27;18.10;72.20
16814;DHT22;8524;57.650;11.926;2023-05-29T12:50:54;17.90;78.70
16814;DHT22;8524;57.650;11.926;2023-05-29T12:53:21;17.70;84.40
16814;DHT22;8524;57.650;11.926;2023-05-29T12:55:50;17.80;85.50
16814;DHT22;8524;57.650;11.926;2023-05-29T12:58:17;18.20;82.10
16814;DHT22;8524;57.650;11.926;2023-05-29T13:00:45;18.60;78.80
16814;DHT22;8524;57.650;11.926;2023-05-29T13:03:13;18.50;67.80
16814;DHT22;8524;57.650;11.926;2023-05-29T13:05:40;18.00;83.60
16814;DHT22;8524;57.650;11.926;2023-05-29T13:08:07;17.50;81.40
16814;DHT22;8524;57.650;11.926;2023-05-29T13:10:34;17.40;83.60
16814;DHT22;8524;57.650;11.926;2023-05-29T13:13:03;18.10;89.10
16814;DHT22;8524;57.650;11.926;2023-05-29T13:15:30;18.20;81.90
16814;DHT22;8524;57.650;11.926;2023-05-29T13:17:59;18.50;76.50
16814;DHT22;8524;57.650;11.926;2023-05-29T13:20:26;18.40;71.00
16814;DHT22;8524;57.650;11.926;2023-05-29T13:22:53;17.80;73.00
16814;DHT22;8524;57.650;11.926;2023-05-29T13:25:20;17.30;89.60
16814;DHT22;8524;57.650;11.926;2023-05-29T13:27:49;17.20;86.50
16814;DHT22;8524;57.650;11.926;2023-05-29T13:30:18;17.20;85.80
16814;DHT22;8524;57.650;11.926;2023-05-29T13:32:45;17.60;84.50
16814;DHT22;8524;57.650;11.926;2023-05-29T13:35:12;18.00;85.70
16814;DHT22;8524;57.650;11.926;2023-05-29T13:37:39;18.50;74.80
16814;DHT22;8524;57.650;11.926;2023-05-29T13:40:07;18.40;71.00
16814;DHT22;8524;57.650;11.926;2023-05-29T13:42:35;18.10;68.30
16814;DHT22;8524;57.650;11.926;2023-05-29T13:45:03;17.70;83.30
16814;DHT22;8524;57.650;11.926;2023-05-29T13:47:33;17.30;90.20
16814;DHT22;8524;57.650;11.926;2023-05-29T13:50:00;17.10;90.40
16814;DHT22;8524;57.650;11.926;2023-05-29T13:52:27;17.50;91.90
16814;DHT22;8524;57.650;11.926;2023-05-29T13:54:54;18.10;90.00
16814;DHT22;8524;57.650;11.926;2023-05-29T13:57:23;18.50;67.10
16814;DHT22;8524;57.650;11.926;2023-05-29T13:59:50;18.20;67.90
16814;DHT22;8524;57.650;11.926;2023-05-29T14:02:17;18.40;69.10
16814;DHT22;8524;57.650;11.926;2023-05-29T14:04:46;18.10;62.70
16814;DHT22;8524;57.650;11.926;2023-05-29T14:07:12;18.10;67.20
16814;DHT22;8524;57.650;11.926;2023-05-29T14:09:39;18.00;68.50
16814;DHT22;8524;57.650;11.926;2023-05-29T14:12:07;17.40;85.50
16814;DHT22;8524;57.650;11.926;2023-05-29T14:14:34;17.10;78.20
16814;DHT22;8524;57.650;11.926;2023-05-29T14:17:01;16.90;90.00
16814;DHT22;8524;57.650;11.926;2023-05-29T14:19:30;16.60;91.00
16814;DHT22;8524;57.650;11.926;2023-05-29T14:21:59;16.60;92.70
16814;DHT22;8524;57.650;11.926;2023-05-29T14:24:27;16.70;92.20
16814;DHT22;8524;57.650;11.926;2023-05-29T14:26:54;16.70;91.60
16814;DHT22;8524;57.650;11.926;2023-05-29T14:29:21;17.10;86.90
16814;DHT22;8524;57.650;11.926;2023-05-29T14:31:48;17.40;82.30
16814;DHT22;8524;57.650;11.926;2023-05-29T14:34:15;17.50;83.10
16814;DHT22;8524;57.650;11.926;2023-05-29T14:36:42;17.70;86.90
16814;DHT22;8524;57.650;11.926;2023-05-29T14:39:11;18.00;81.80
16814;DHT22;8524;57.650;11.926;2023-05-29T14:41:38;18.00;83.80
16814;DHT22;8524;57.650;11.926;2023-05-29T14:44:05;18.60;75.70
16814;DHT22;8524;57.650;11.926;2023-05-29T14:46:32;18.50;80.80
16814;DHT22;8524;57.650;11.926;2023-05-29T14:49:00;18.20;78.40
16814;DHT22;8524;57.650;11.926;2023-05-29T14:51:27;18.20;81.00
16814;DHT22;8524;57.650;11.926;2023-05-29T14:53:55;18.20;83.20
16814;DHT22;8524;57.650;11.926;2023-05-29T14:56:23;18.00;78.80
16814;DHT22;8524;57.650;11.926;2023-05-29T14:58:50;17.70;72.60
16814;DHT22;8524;57.650;11.926;2023-05-29T15:01:18;17.50;75.20
16814;DHT22;8524;57.650;11.926;2023-05-29T15:03:45;17.60;76.70
16814;DHT22;8524;57.650;11.926;2023-05-29T15:06:12;18.10;70.60
16814;DHT22;8524;57.650;11.926;2023-05-29T15:08:39;18.20;75.90
16814;DHT22;8524;57.650;11.926;2023-05-29T15:11:09;18.40;67.30
16814;DHT22;8524;57.650;11.926;2023-05-29T15:13:39;18.30;71.80
16814;DHT22;8524;57.650;11.926;2023-05-29T15:16:06;18.10;78.90
16814;DHT22;8524;57.650;11.926;2023-05-29T15:18:34;18.00;79.00
16814;DHT22;8524;57.650;11.926;2023-05-29T15:21:01;17.50;75.90
16814;DHT22;8524;57.650;11.926;2023-05-29T15:23:28;17.60;77.30
16814;DHT22;8524;57.650;11.926;2023-05-29T15:25:56;17.50;76.70
16814;DHT22;8524;57.650;11.926;2023-05-29T15:28:23;17.60;75.90
16814;DHT22;8524;57.650;11.926;2023-05-29T15:30:51;16.90;82.90
16814;DHT22;8524;57.650;11.926;2023-05-29T15:33:19;17.00;87.70
16814;DHT22;8524;57.650;11.926;2023-05-29T15:35:46;17.10;92.90
16814;DHT22;8524;57.650;11.926;2023-05-29T15:38:13;17.20;93.90
16814;DHT22;8524;57.650;11.926;2023-05-29T15:40:41;17.50;92.00
16814;DHT22;8524;57.650;11.926;2023-05-29T15:43:08;17.70;89.80